VOBG

Details ICAO VOBG
Name Bangalore
Region India
Timezone Asia/Kolkata (UTC+5.5)
Plans Departing 139
Arriving 144
Stats Elevation 2,912 ft / 888 m (AMSL)
Location 12.950157° 77.670647°
Runways 1
Magnetic Variation 1.216° W
Sunrise 2017-12-17 01:05:45 UTC / 2017-12-17 06:35:45 Local
Sunset 2017-12-17 12:27:39 UTC / 2017-12-17 17:57:39 Local
Advertisement - Login to hide

Runways

ID Width Length Bearing (true) Bearing (mag) Surface Threshold Offset Overrun Length
09 200 ft / 61 m 10,786 ft / 3,288 m 84.80° 86.02° Asphalt 0 ft / 0 m 950 ft / 290 m
27 200 ft / 61 m 10,786 ft / 3,288 m 264.81° 266.03° Asphalt 0 ft / 0 m 980 ft / 299 m

Approach Navaids

Runway Type Ident Frequency Range Bearing (true) Bearing (mag) Slope Elevation
27 Localiser IBLR 110.50 MHz 18 nm / 33 km 262.49° 263.70° - 2,912 ft / 888 m (AMSL)
27 Glidescope IBLR 110.50 MHz 10 nm / 19 km 264.81° 266.02° 3.00° 2,943 ft / 897 m (AMSL)
27 DME IBLR 110.50 MHz 18 nm / 33 km - - - 2,912 ft / 888 m (AMSL)

Map

Weather


0- 5 10 15 20 25 30 35+ Temperature / ° C

Clouds and Precipitation
Forecast for 2017-12-17 06:00 UTC. Updated 2 hours ago

Ground ~20,000 ft ~40,000 ft Winds

METAR

VOBG 170230Z 09008KT 4000 BR SCT008 18/15 Q1021

TAF

Not found

Frequencies

Recorded 128.25 MHz ATIS
Approach 127.70 MHz APP
Tower 123.50 MHz TWR
Approach 122.70 MHz APP
Warning: Do not use this data for real-world aviation or navigation. No guarantee of current accuracy is given.